Archer City, Texas
Current Conditions -  °F | °C
As of 11:15 AM on Friday 28 Nov 2014 (Local Time) from KCWC Reporting Station
Clear Clear  
Wind Chill: 61°   Ceiling: Unl
Heat Index: 61°   Visibility: 10mi
Dew Point: 39°   Wind: 15mph
Humidity: 45%   Direction: 210°SSW
Pressure: 30.11"   Gusts: 22mph
Location:  33.6°N, 98.63°W
Report Text: KCWC 281715Z AUTO 21013G19KT 10SM CLR 16/04 A3011 RMK AO2 T01600039
Loading
Personal Weather Stations






























Interactive Weather Map New forecast layout! Learn more

10-Day Weather Forecast

Advertisements
Track Severe Weather on mobile